Time;durP1;ratioP1;P1;durP2;ratioP2;P2;SDS_P1;SDS_P2;PMS_P1;PMS_P2;Temp;Humidity;BMP_temperature;BMP_pressure;BME280_temperature;BME280_humidity;BME280_pressure;Samples;Min_cycle;Max_cycle;Signal;HPM_P1;HPM_P2
2022/08/27 00:02:09;;;;;;;18.20;8.98;;;;;;;20.13;71.13;100307.59;10150238;29;20037;-78
2022/08/27 00:07:14;;;;;;;15.05;8.30;;;;;;;20.09;70.73;100300.81;10158054;29;20043;-78
2022/08/27 00:12:16;;;;;;;15.70;8.70;;;;;;;20.09;71.18;100305.41;10161374;29;20055;-78
2022/08/27 00:17:19;;;;;;;16.02;8.80;;;;;;;19.95;70.77;100304.38;10142142;29;20080;-78
2022/08/27 00:22:24;;;;;;;15.65;8.55;;;;;;;19.94;70.41;100296.38;10150466;29;20052;-78
2022/08/27 00:27:26;;;;;;;18.23;9.35;;;;;;;19.95;70.61;100290.75;10161827;29;20052;-78
2022/08/27 00:32:29;;;;;;;13.48;8.77;;;;;;;20.00;70.50;100279.28;10158856;29;20048;-77
2022/08/27 00:37:33;;;;;;;17.83;8.80;;;;;;;19.90;70.33;100288.59;10163601;29;20108;-78
2022/08/27 00:42:37;;;;;;;12.23;8.43;;;;;;;19.89;70.51;100289.63;10175359;29;20044;-77
2022/08/27 00:47:44;;;;;;;15.02;8.60;;;;;;;19.91;70.49;100297.59;10159523;29;20466;-77
2022/08/27 00:52:54;;;;;;;16.45;8.73;;;;;;;19.80;70.71;100301.66;10163577;29;20044;-77
2022/08/27 00:58:04;;;;;;;18.10;9.38;;;;;;;19.65;71.00;100296.19;10162184;29;20645;-77
2022/08/27 01:03:07;;;;;;;16.88;8.68;;;;;;;19.78;70.75;100302.88;10139847;29;20108;-77
2022/08/27 01:08:20;;;;;;;14.18;8.40;;;;;;;19.72;70.58;100309.94;10164612;29;20048;-77
2022/08/27 01:13:25;;;;;;;19.23;8.15;;;;;;;19.63;70.78;100303.69;10148756;29;20348;-78
2022/08/27 01:18:49;;;;;;;12.50;7.50;;;;;;;19.61;71.09;100308.50;10148650;29;20079;-78
2022/08/27 01:24:13;;;;;;;14.90;8.60;;;;;;;19.57;71.21;100304.44;10137661;29;20044;-77
2022/08/27 01:29:18;;;;;;;13.63;8.55;;;;;;;19.50;70.97;100313.50;10166801;29;20048;-77
2022/08/27 01:34:21;;;;;;;14.30;7.97;;;;;;;19.55;70.89;100313.78;10146442;29;20152;-78
2022/08/27 01:39:24;;;;;;;12.75;8.05;;;;;;;19.55;70.82;100309.19;10164846;29;20067;-78
2022/08/27 01:44:29;;;;;;;21.63;9.57;;;;;;;19.05;71.68;100310.63;10152633;29;20052;-78
2022/08/27 01:49:31;;;;;;;23.30;9.98;;;;;;;19.27;71.11;100313.53;10146964;29;20036;-78
2022/08/27 01:54:35;;;;;;;18.27;9.25;;;;;;;19.28;70.47;100315.22;10154954;29;20044;-78
2022/08/27 01:59:39;;;;;;;20.27;10.55;;;;;;;19.39;70.13;100322.94;10160388;29;20057;-77
2022/08/27 02:04:42;;;;;;;15.93;10.20;;;;;;;19.31;69.96;100314.84;10148999;29;20509;-76
2022/08/27 02:09:45;;;;;;;17.20;7.65;;;;;;;19.23;69.83;100311.19;10146661;29;20052;-77
2022/08/27 02:14:49;;;;;;;18.67;6.90;;;;;;;19.23;69.62;100313.91;10143915;29;20409;-78
2022/08/27 02:19:52;;;;;;;14.02;6.10;;;;;;;19.01;69.67;100299.28;10143298;29;20470;-78
2022/08/27 02:24:55;;;;;;;10.48;5.38;;;;;;;19.13;69.73;100316.03;10155085;29;20045;-78
2022/08/27 02:29:59;;;;;;;12.50;5.05;;;;;;;19.19;69.70;100309.84;10163685;29;20095;-78
2022/08/27 02:35:03;;;;;;;15.13;5.07;;;;;;;19.23;69.56;100311.19;10147446;29;20431;-78
2022/08/27 02:40:08;;;;;;;10.95;4.80;;;;;;;19.17;69.65;100320.09;10157823;29;20044;-77
2022/08/27 02:45:13;;;;;;;12.45;5.40;;;;;;;19.08;69.81;100317.59;10153399;29;20179;-78
2022/08/27 02:50:16;;;;;;;9.40;5.35;;;;;;;18.66;70.50;100327.88;10159934;29;20052;-78
2022/08/27 02:55:20;;;;;;;17.88;4.80;;;;;;;18.88;69.89;100331.69;10146683;29;20044;-77
2022/08/27 03:00:26;;;;;;;12.10;4.72;;;;;;;18.91;70.17;100325.03;10162671;29;20108;-78
2022/08/27 03:05:29;;;;;;;12.63;3.55;;;;;;;18.70;70.19;100329.19;10143616;29;20048;-77
2022/08/27 03:10:32;;;;;;;9.60;3.95;;;;;;;18.86;69.78;100325.56;10133758;29;20048;-79
2022/08/27 03:15:36;;;;;;;14.07;3.75;;;;;;;18.81;69.66;100325.25;10150443;29;20052;-77
2022/08/27 03:20:41;;;;;;;11.23;4.07;;;;;;;18.82;69.33;100328.84;10142497;29;20510;-78
2022/08/27 03:25:45;;;;;;;11.38;3.08;;;;;;;18.77;69.08;100323.91;10144746;29;20486;-78
2022/08/27 03:30:51;;;;;;;13.55;3.47;;;;;;;18.76;69.01;100333.94;10132884;29;20052;-77
2022/08/27 03:35:55;;;;;;;8.55;2.65;;;;;;;18.85;68.72;100332.06;10143164;29;20040;-77
2022/08/27 03:40:58;;;;;;;7.00;2.50;;;;;;;18.89;68.68;100332.53;10149455;29;20052;-77
2022/08/27 03:46:02;;;;;;;8.57;2.40;;;;;;;18.89;68.49;100336.09;10159442;29;20098;-77
2022/08/27 03:51:07;;;;;;;7.13;2.33;;;;;;;18.90;68.61;100326.06;10203227;23;20059;-77
2022/08/27 03:56:10;;;;;;;8.20;2.65;;;;;;;18.84;68.24;100333.09;10192894;29;20474;-78
2022/08/27 04:01:15;;;;;;;8.32;2.47;;;;;;;18.83;68.34;100341.41;10192263;29;20054;-78
2022/08/27 04:06:18;;;;;;;9.23;2.17;;;;;;;18.72;68.57;100338.03;10179644;29;20044;-78
2022/08/27 04:11:22;;;;;;;7.03;2.72;;;;;;;18.74;68.09;100344.16;10179375;29;20557;-78
2022/08/27 04:16:26;;;;;;;10.30;2.30;;;;;;;18.63;67.79;100347.28;10205244;29;20041;-78
2022/08/27 04:21:31;;;;;;;12.35;2.80;;;;;;;18.57;67.56;100342.56;10193837;29;20127;-78
2022/08/27 04:26:34;;;;;;;12.63;3.08;;;;;;;18.62;67.78;100342.00;10198976;29;20050;-78
2022/08/27 04:31:39;;;;;;;10.57;2.55;;;;;;;18.57;67.41;100351.56;10202047;29;20489;-78
2022/08/27 04:36:41;;;;;;;15.88;3.10;;;;;;;18.67;67.31;100354.03;10198379;29;20449;-78
2022/08/27 04:41:44;;;;;;;7.28;2.22;;;;;;;18.44;67.35;100351.28;10189583;29;20109;-78
2022/08/27 04:46:49;;;;;;;6.63;2.28;;;;;;;18.54;67.47;100360.06;10187741;29;20056;-79
2022/08/27 04:51:53;;;;;;;10.75;2.40;;;;;;;18.63;67.17;100360.03;10198219;29;20360;-80
2022/08/27 04:56:56;;;;;;;6.18;1.70;;;;;;;18.60;66.96;100355.81;10201140;29;20056;-76
2022/08/27 05:02:01;;;;;;;9.48;2.33;;;;;;;18.62;66.92;100351.00;10194978;29;20040;-78
2022/08/27 05:07:07;;;;;;;6.20;1.67;;;;;;;18.64;66.82;100342.69;10197136;29;20071;-77
2022/08/27 05:12:10;;;;;;;13.15;3.42;;;;;;;18.15;67.43;100357.31;10213058;29;20048;-78
2022/08/27 05:17:15;;;;;;;10.40;2.58;;;;;;;18.31;67.75;100349.09;10213729;29;20079;-77
2022/08/27 05:22:17;;;;;;;6.85;1.92;;;;;;;18.55;67.62;100360.91;10221943;29;20036;-76
2022/08/27 05:27:20;;;;;;;10.30;2.25;;;;;;;18.27;68.31;100361.38;10203743;29;20083;-76
2022/08/27 05:32:24;;;;;;;7.90;2.67;;;;;;;18.53;67.60;100357.53;10188337;29;20099;-76
2022/08/27 05:37:27;;;;;;;11.73;2.10;;;;;;;18.57;67.00;100362.44;10197763;29;20087;-76
2022/08/27 05:42:31;;;;;;;7.03;2.03;;;;;;;18.55;66.89;100360.91;10186100;29;20048;-76
2022/08/27 05:47:35;;;;;;;7.40;2.17;;;;;;;18.27;67.26;100369.53;10196615;29;20092;-77
2022/08/27 05:52:46;;;;;;;3.85;1.55;;;;;;;18.50;66.61;100356.00;10192611;29;20048;-77
2022/08/27 05:57:50;;;;;;;5.57;1.75;;;;;;;18.18;67.16;100358.84;10202488;29;20404;-77
2022/08/27 06:02:54;;;;;;;4.93;1.70;;;;;;;18.48;66.29;100357.19;10204245;29;20066;-76
2022/08/27 06:07:57;;;;;;;4.57;1.80;;;;;;;18.62;66.17;100366.50;10212846;29;20051;-77
2022/08/27 06:19:07;;;;;;;5.43;1.83;;;;;;;18.31;66.43;100376.31;10203711;28;20047;-77
2022/08/27 06:24:12;;;;;;;9.13;2.00;;;;;;;18.47;65.89;100372.69;10205492;29;20043;-77
2022/08/27 06:29:15;;;;;;;7.35;1.65;;;;;;;17.63;68.49;100382.19;10219873;23;20908;-77
2022/08/27 06:34:20;;;;;;;4.70;1.60;;;;;;;17.84;67.95;100378.94;10231982;28;20103;-77
2022/08/27 06:39:23;;;;;;;5.68;1.80;;;;;;;18.52;65.92;100380.31;10204366;29;20481;-77
2022/08/27 06:44:26;;;;;;;5.90;1.83;;;;;;;18.70;64.89;100383.63;10191341;29;20052;-78
2022/08/27 06:49:30;;;;;;;6.18;1.70;;;;;;;19.04;63.32;100378.91;10193483;29;20056;-78
2022/08/27 06:54:33;;;;;;;7.93;1.42;;;;;;;18.94;63.28;100384.56;10206870;29;20087;-78
2022/08/27 06:59:36;;;;;;;10.80;3.17;;;;;;;19.14;63.23;100391.25;10198437;29;20055;-76
2022/08/27 07:04:43;;;;;;;6.57;1.45;;;;;;;19.34;62.79;100393.50;10199688;29;20043;-77
2022/08/27 07:09:46;;;;;;;7.43;1.50;;;;;;;19.37;61.93;100401.28;10201685;29;20689;-78
2022/08/27 07:14:49;;;;;;;5.88;1.50;;;;;;;19.84;61.63;100400.25;10195748;29;20048;-77
2022/08/27 07:19:53;;;;;;;8.95;1.50;;;;;;;19.93;59.94;100404.56;10231295;29;20067;-77
2022/08/27 07:24:56;;;;;;;5.10;1.50;;;;;;;20.00;61.16;100412.88;10223804;29;20131;-78
2022/08/27 07:29:59;;;;;;;6.35;1.50;;;;;;;19.78;60.74;100401.84;10196395;29;20052;-79
2022/08/27 07:35:08;;;;;;;10.25;1.65;;;;;;;19.60;61.62;100412.19;10198922;29;20041;-78
2022/08/27 07:40:14;;;;;;;8.07;2.40;;;;;;;19.22;62.39;100412.09;10179400;29;20131;-76
2022/08/27 07:45:17;;;;;;;7.82;1.60;;;;;;;19.19;62.68;100415.19;10197040;29;20051;-77
2022/08/27 07:50:22;;;;;;;7.97;1.80;;;;;;;19.26;62.14;100416.19;10202239;29;20051;-76
2022/08/27 07:55:25;;;;;;;6.68;1.63;;;;;;;19.37;62.30;100418.47;10185282;29;20050;-77
2022/08/27 08:00:28;;;;;;;9.60;1.80;;;;;;;19.52;62.26;100425.84;10191316;29;20055;-76
2022/08/27 08:05:32;;;;;;;8.30;2.30;;;;;;;19.35;62.16;100425.13;10195578;29;20072;-76
2022/08/27 08:10:36;;;;;;;9.35;1.63;;;;;;;19.47;62.27;100434.56;10190038;29;20394;-76
2022/08/27 08:15:39;;;;;;;10.43;2.08;;;;;;;19.33;62.75;100435.34;10194725;29;20047;-77
2022/08/27 08:20:43;;;;;;;5.35;2.20;;;;;;;19.19;64.08;100445.97;10170697;29;20462;-77
2022/08/27 08:26:00;;;;;;;7.32;2.25;;;;;;;19.11;64.19;100448.75;10170448;29;20485;-77
2022/08/27 08:31:04;;;;;;;10.50;2.00;;;;;;;19.25;63.52;100447.13;10170802;29;20048;-77
2022/08/27 08:36:10;;;;;;;6.80;2.67;;;;;;;19.32;63.35;100450.00;10180251;29;20070;-77
2022/08/27 08:41:37;;;;;;;5.85;1.70;;;;;;;18.95;65.88;100457.88;10198297;29;20104;-76
2022/08/27 08:46:48;;;;;;;3.15;1.55;;;;;;;18.50;67.19;100461.22;10196389;29;20046;-76
2022/08/27 08:51:55;;;;;;;6.63;1.92;;;;;;;18.28;69.04;100466.38;10191530;29;20051;-76
2022/08/27 08:57:01;;;;;;;4.65;1.80;;;;;;;18.40;69.12;100472.28;10197332;29;20122;-77
2022/08/27 09:02:06;;;;;;;10.00;2.08;;;;;;;18.41;69.15;100467.72;10179391;29;20040;-76
2022/08/27 09:07:33;;;;;;;7.68;2.17;;;;;;;17.38;73.10;100457.34;10177958;29;20048;-77
2022/08/27 09:12:38;;;;;;;3.88;1.75;;;;;;;18.46;70.14;100465.34;10208847;29;20095;-77
2022/08/27 09:17:41;;;;;;;3.50;1.70;;;;;;;18.00;70.54;100465.06;10210375;29;20039;-78
2022/08/27 09:22:53;;;;;;;2.95;1.70;;;;;;;17.64;73.08;100477.09;10195293;29;20044;-78
2022/08/27 09:27:59;;;;;;;5.13;2.58;;;;;;;17.69;74.14;100468.44;10195698;29;20047;-78
2022/08/27 09:33:04;;;;;;;4.57;2.42;;;;;;;17.80;74.14;100465.38;10212644;29;20043;-77
2022/08/27 09:38:09;;;;;;;4.75;2.30;;;;;;;17.79;75.58;100466.38;10200502;29;20092;-77
2022/08/27 09:43:22;;;;;;;7.65;3.00;;;;;;;17.69;76.79;100461.13;10195811;29;20047;-78
2022/08/27 09:48:27;;;;;;;5.47;2.85;;;;;;;17.74;77.07;100467.91;10185251;29;20044;-79
2022/08/27 09:53:37;;;;;;;6.32;3.00;;;;;;;17.40;77.72;100477.91;10204676;29;20102;-79
2022/08/27 09:58:51;;;;;;;4.72;3.40;;;;;;;16.94;78.58;100482.81;10193972;29;20454;-78
2022/08/27 10:04:05;;;;;;;7.95;3.88;;;;;;;16.94;78.09;100482.81;10208886;29;20063;-78
2022/08/27 10:09:15;;;;;;;8.20;4.20;;;;;;;17.37;78.87;100490.97;10184891;29;20071;-78
2022/08/27 10:14:22;;;;;;;10.32;3.97;;;;;;;17.60;78.61;100486.56;10201218;29;20044;-78
2022/08/27 10:19:40;;;;;;;8.55;3.55;;;;;;;17.57;78.21;100486.91;10210783;29;20089;-79
2022/08/27 10:24:58;;;;;;;10.38;3.35;;;;;;;17.72;78.07;100486.25;10207018;29;20092;-78
2022/08/27 10:30:07;;;;;;;9.02;4.22;;;;;;;17.35;77.21;100488.41;10195507;29;20048;-78
2022/08/27 10:35:16;;;;;;;12.00;4.80;;;;;;;17.74;75.45;100476.91;10211209;29;20051;-79
2022/08/27 10:40:29;;;;;;;8.40;3.80;;;;;;;17.87;76.31;100482.69;10201662;29;20404;-79
2022/08/27 10:45:42;;;;;;;8.93;3.67;;;;;;;18.04;76.26;100482.72;10206098;29;20056;-79
2022/08/27 10:50:49;;;;;;;11.50;4.43;;;;;;;17.66;74.14;100491.34;10201535;29;20493;-81
2022/08/27 10:56:04;;;;;;;14.98;3.67;;;;;;;17.51;76.35;100489.47;10194226;29;20909;-79
2022/08/27 11:01:17;;;;;;;8.95;3.55;;;;;;;17.74;76.23;100487.78;10203840;29;20059;-78
2022/08/27 11:06:26;;;;;;;10.27;3.38;;;;;;;17.74;73.99;100482.34;10182502;29;20088;-78
2022/08/27 11:11:38;;;;;;;9.13;4.43;;;;;;;18.61;71.75;100477.19;10209699;29;20048;-77
2022/08/27 11:17:08;;;;;;;11.07;3.75;;;;;;;18.35;71.61;100477.44;10202920;29;20055;-77
2022/08/27 11:22:17;;;;;;;9.68;3.30;;;;;;;18.39;70.95;100477.91;10197642;29;20120;-77
2022/08/27 11:27:33;;;;;;;8.32;2.92;;;;;;;18.73;70.33;100489.41;10209792;29;20096;-77
2022/08/27 11:32:50;;;;;;;8.27;3.28;;;;;;;18.38;69.20;100479.81;10201999;29;20076;-75
2022/08/27 11:38:26;;;;;;;8.65;3.25;;;;;;;18.97;68.69;100488.47;10184658;29;20040;-76
2022/08/27 11:43:35;;;;;;;8.05;3.03;;;;;;;19.38;67.76;100484.69;10198589;29;20047;-75
2022/08/27 11:48:40;;;;;;;7.28;3.10;;;;;;;18.86;67.08;100480.69;10190203;29;20048;-76
2022/08/27 11:53:56;;;;;;;10.55;2.83;;;;;;;19.56;65.84;100477.13;10174515;28;20051;-75
2022/08/27 11:59:11;;;;;;;6.72;2.72;;;;;;;20.60;62.37;100479.25;10160694;28;20136;-75
2022/08/27 12:04:33;;;;;;;7.88;2.25;;;;;;;21.16;59.99;100465.97;10159349;28;21189;-75
2022/08/27 12:09:54;;;;;;;6.00;2.50;;;;;;;20.90;59.60;100471.91;10153872;28;20088;-75
2022/08/27 12:15:05;;;;;;;7.65;2.83;;;;;;;21.96;59.24;100469.53;10160049;28;20051;-75
2022/08/27 12:20:22;;;;;;;11.38;3.67;;;;;;;21.57;58.73;100470.84;10133217;28;20060;-75
2022/08/27 12:25:26;;;;;;;7.65;2.30;;;;;;;22.85;54.75;100471.66;10160894;28;20083;-75
2022/08/27 12:30:33;;;;;;;9.93;2.22;;;;;;;23.49;54.39;100464.97;10168161;28;20056;-75
2022/08/27 12:35:43;;;;;;;5.25;2.33;;;;;;;23.57;51.37;100465.59;10166998;28;20047;-75
2022/08/27 12:40:50;;;;;;;5.20;2.22;;;;;;;22.54;54.38;100476.56;10172839;28;20070;-75
2022/08/27 12:45:58;;;;;;;4.88;2.63;;;;;;;21.94;55.99;100474.34;10169624;28;20051;-75
2022/08/27 12:51:06;;;;;;;8.23;3.00;;;;;;;21.85;57.25;100468.19;10171418;28;20545;-75
2022/08/27 12:56:36;;;;;;;7.13;2.40;;;;;;;21.73;56.46;100475.19;10170263;28;20183;-75
2022/08/27 13:01:57;;;;;;;7.38;2.78;;;;;;;20.76;58.12;100471.75;10149697;28;20052;-75
2022/08/27 13:07:00;;;;;;;6.93;2.05;;;;;;;21.77;56.26;100469.16;10171228;28;20052;-75
2022/08/27 13:12:07;;;;;;;3.50;1.83;;;;;;;21.30;56.54;100476.00;10148140;28;20528;-75
2022/08/27 13:17:15;;;;;;;4.18;2.17;;;;;;;21.71;56.21;100472.66;10148929;28;20244;-75
2022/08/27 13:22:23;;;;;;;5.65;1.95;;;;;;;21.05;57.81;100480.97;10138862;28;20297;-75
2022/08/27 13:27:28;;;;;;;7.97;2.25;;;;;;;20.78;56.96;100475.09;10155333;28;20399;-75
2022/08/27 13:32:33;;;;;;;6.90;2.08;;;;;;;21.31;55.69;100469.50;10149408;28;20766;-75
2022/08/27 13:37:41;;;;;;;7.30;2.40;;;;;;;21.60;55.88;100473.16;10151125;28;20047;-75
2022/08/27 13:42:44;;;;;;;5.75;2.10;;;;;;;21.86;54.75;100467.16;10151899;28;20155;-75
2022/08/27 13:47:49;;;;;;;4.43;1.88;;;;;;;21.06;55.39;100463.53;10159627;28;20437;-76
2022/08/27 13:58:26;;;;;;;5.00;2.30;;;;;;;21.19;54.47;100457.38;10154749;28;20088;-76
2022/08/27 14:03:35;;;;;;;7.00;1.83;;;;;;;21.40;53.76;100462.88;10159872;28;21306;-76
2022/08/27 14:08:38;;;;;;;5.85;1.90;;;;;;;21.96;52.97;100458.59;10165257;28;20267;-76
2022/08/27 14:13:44;;;;;;;6.18;1.73;;;;;;;21.80;53.56;100448.78;10159663;28;20074;-76
2022/08/27 14:18:55;;;;;;;6.32;1.95;;;;;;;21.90;52.51;100452.03;10160267;28;20530;-76
2022/08/27 14:24:01;;;;;;;6.85;1.80;;;;;;;21.89;53.46;100458.56;10151487;28;20501;-76
2022/08/27 14:29:05;;;;;;;10.20;2.55;;;;;;;21.79;52.40;100458.03;10161671;28;20126;-76
2022/08/27 14:34:15;;;;;;;9.20;2.05;;;;;;;21.94;52.88;100456.09;10165596;28;20051;-76
2022/08/27 14:39:18;;;;;;;9.68;2.60;;;;;;;22.13;52.76;100462.72;10146362;28;20623;-76
2022/08/27 14:44:27;;;;;;;10.07;3.25;;;;;;;22.02;52.12;100468.75;10154791;28;20051;-76
2022/08/27 14:49:34;;;;;;;9.02;2.05;;;;;;;21.08;52.71;100461.47;10155566;28;20051;-76
2022/08/27 14:54:38;;;;;;;10.00;2.00;;;;;;;21.56;53.88;100447.28;10161236;28;21375;-76
2022/08/27 14:59:41;;;;;;;4.40;1.77;;;;;;;22.11;52.43;100452.00;10159442;28;20048;-76
2022/08/27 15:04:45;;;;;;;6.53;2.03;;;;;;;22.70;51.93;100455.34;10145665;28;20286;-76
2022/08/27 15:09:49;;;;;;;8.18;2.53;;;;;;;22.58;52.25;100463.31;10155639;28;20052;-76
2022/08/27 15:14:52;;;;;;;7.90;2.03;;;;;;;22.27;52.12;100463.69;10150425;28;20052;-76
2022/08/27 15:19:57;;;;;;;5.75;1.70;;;;;;;21.86;51.94;100459.81;10152424;28;20052;-76
2022/08/27 15:25:00;;;;;;;7.70;1.90;;;;;;;21.60;52.67;100467.72;10153603;28;20051;-76
2022/08/27 15:30:07;;;;;;;7.97;1.88;;;;;;;21.89;52.10;100464.03;10153430;28;20521;-76
2022/08/27 15:35:15;;;;;;;6.65;1.38;;;;;;;21.85;51.95;100466.28;10143883;28;20079;-76
2022/08/27 15:40:19;;;;;;;9.02;1.90;;;;;;;21.61;51.87;100462.06;10143978;28;20112;-76
2022/08/27 15:45:23;;;;;;;7.70;2.25;;;;;;;21.68;53.10;100473.03;10150842;28;20058;-76
2022/08/27 15:50:31;;;;;;;3.63;1.40;;;;;;;21.68;53.32;100462.09;10154969;28;20535;-77
2022/08/27 15:55:36;;;;;;;4.57;1.85;;;;;;;21.65;53.58;100463.34;10158216;28;20044;-77
2022/08/27 16:00:41;;;;;;;6.63;2.47;;;;;;;21.62;54.00;100463.75;10156736;28;20055;-76
2022/08/27 16:05:46;;;;;;;4.82;1.58;;;;;;;21.40;53.25;100460.16;10157702;28;20154;-76
2022/08/27 16:10:49;;;;;;;6.53;2.05;;;;;;;21.34;53.03;100455.47;10162665;28;20044;-76
2022/08/27 16:15:53;;;;;;;7.75;2.05;;;;;;;21.53;53.45;100458.59;10140532;28;20146;-75
2022/08/27 16:21:01;;;;;;;5.90;1.70;;;;;;;21.01;52.94;100457.78;10155832;28;20155;-76
2022/08/27 16:26:04;;;;;;;7.10;1.83;;;;;;;21.33;53.31;100456.47;10143868;28;20140;-77
2022/08/27 16:31:07;;;;;;;4.45;1.60;;;;;;;20.98;53.98;100461.75;10150357;28;20060;-77
2022/08/27 16:36:15;;;;;;;6.35;1.83;;;;;;;20.81;54.41;100464.84;10156401;28;20055;-74
2022/08/27 16:41:18;;;;;;;6.03;1.80;;;;;;;21.06;54.70;100458.06;10159329;28;20052;-76
2022/08/27 16:46:21;;;;;;;6.22;1.80;;;;;;;21.10;54.83;100464.84;10152200;28;20047;-76
2022/08/27 16:51:29;;;;;;;3.55;1.77;;;;;;;20.87;54.21;100469.53;10167338;28;20047;-76
2022/08/27 16:56:36;;;;;;;5.05;1.70;;;;;;;20.85;54.75;100461.56;10174310;28;20047;-76
2022/08/27 17:01:40;;;;;;;5.63;1.60;;;;;;;20.57;54.76;100453.22;10162090;28;20050;-76
2022/08/27 17:06:45;;;;;;;6.13;1.73;;;;;;;20.62;54.28;100460.81;10169570;28;20263;-75
2022/08/27 17:11:55;;;;;;;5.45;2.03;;;;;;;20.48;55.38;100460.63;10167461;28;20059;-76
2022/08/27 17:16:59;;;;;;;6.50;1.80;;;;;;;20.37;54.82;100462.97;10170182;28;20175;-75
2022/08/27 17:22:04;;;;;;;7.13;1.40;;;;;;;20.18;55.51;100453.41;10169047;28;20052;-77
2022/08/27 17:27:07;;;;;;;5.90;1.98;;;;;;;19.98;55.78;100453.94;10159114;28;20194;-77
2022/08/27 17:32:10;;;;;;;10.35;1.65;;;;;;;19.79;56.38;100460.75;10163628;28;20048;-78
2022/08/27 17:37:14;;;;;;;9.98;1.60;;;;;;;19.94;56.10;100459.94;10159868;28;20055;-78
2022/08/27 17:42:20;;;;;;;5.57;1.38;;;;;;;19.85;56.03;100460.00;10174536;28;20079;-78
2022/08/27 17:47:24;;;;;;;8.05;2.00;;;;;;;19.68;56.47;100469.34;10143091;28;20063;-77
2022/08/27 17:52:28;;;;;;;10.65;1.90;;;;;;;19.83;56.46;100472.16;10153065;28;20422;-78
2022/08/27 17:57:33;;;;;;;5.88;1.42;;;;;;;19.82;56.73;100476.72;10147174;28;20055;-78
2022/08/27 18:02:46;;;;;;;9.85;1.90;;;;;;;19.74;57.51;100473.22;10191310;28;20048;-78
2022/08/27 18:07:51;;;;;;;4.40;1.42;;;;;;;19.63;57.37;100488.13;10180323;28;20055;-78
2022/08/27 18:12:54;;;;;;;8.77;1.70;;;;;;;19.54;57.98;100490.03;10180411;28;20048;-78
2022/08/27 18:17:58;;;;;;;8.05;1.70;;;;;;;19.33;59.44;100492.53;10178358;28;20087;-79
2022/08/27 18:23:03;;;;;;;9.30;1.67;;;;;;;19.13;58.79;100497.59;10171584;28;20066;-78
2022/08/27 18:28:08;;;;;;;8.18;1.60;;;;;;;19.10;58.15;100492.50;10174985;28;20067;-78
2022/08/27 18:33:12;;;;;;;6.57;1.50;;;;;;;19.21;58.80;100503.84;10173651;28;20557;-78
2022/08/27 18:38:17;;;;;;;8.48;2.35;;;;;;;19.03;59.01;100505.97;10162204;28;20055;-78
2022/08/27 18:43:21;;;;;;;5.68;1.60;;;;;;;19.06;59.40;100510.19;10172431;28;20043;-78
2022/08/27 18:48:24;;;;;;;8.60;1.70;;;;;;;19.26;59.32;100500.59;10172044;28;20063;-78
2022/08/27 18:53:32;;;;;;;5.78;2.08;;;;;;;19.29;59.04;100508.41;10166278;28;20055;-78
2022/08/27 18:58:38;;;;;;;8.77;1.80;;;;;;;19.06;59.72;100510.19;10142590;28;21161;-78
2022/08/27 19:03:45;;;;;;;8.20;1.67;;;;;;;18.99;59.12;100513.63;10152010;28;20062;-77
2022/08/27 19:08:50;;;;;;;3.67;1.60;;;;;;;19.09;59.46;100528.91;10169587;28;20118;-79
2022/08/27 19:13:53;;;;;;;5.88;1.40;;;;;;;19.18;59.52;100528.72;10168479;28;20055;-79
2022/08/27 19:18:56;;;;;;;4.10;1.50;;;;;;;19.16;59.36;100535.34;10162601;28;20056;-79
2022/08/27 19:24:06;;;;;;;7.88;1.73;;;;;;;19.16;59.37;100546.25;10165365;28;20056;-81
2022/08/27 19:29:09;;;;;;;5.60;1.60;;;;;;;19.11;58.80;100552.22;10180909;28;20857;-79
2022/08/27 19:34:12;;;;;;;6.55;2.03;;;;;;;19.06;58.51;100553.75;10150371;28;20052;-80
2022/08/27 19:39:16;;;;;;;7.55;2.10;;;;;;;18.95;58.23;100549.53;10150220;28;20048;-80
2022/08/27 19:44:19;;;;;;;12.02;2.25;;;;;;;18.92;57.92;100556.19;10166920;28;20056;-80
2022/08/27 19:49:23;;;;;;;10.52;2.00;;;;;;;18.92;57.74;100564.34;10168994;28;20102;-81
2022/08/27 19:54:28;;;;;;;4.90;1.73;;;;;;;18.94;57.90;100566.91;10174142;28;20175;-80
2022/08/27 19:59:35;;;;;;;8.82;1.90;;;;;;;18.90;58.01;100576.47;10169707;28;20104;-80
2022/08/27 20:04:40;;;;;;;6.95;1.45;;;;;;;18.72;57.59;100576.63;10177890;28;20623;-80
2022/08/27 20:10:05;;;;;;;7.68;1.65;;;;;;;18.66;57.11;100577.31;10177393;28;20052;-80
2022/08/27 20:15:11;;;;;;;5.00;1.88;;;;;;;18.58;57.09;100578.19;10177230;28;20648;-79
2022/08/27 20:20:15;;;;;;;8.68;2.38;;;;;;;18.31;57.34;100579.38;10198253;28;20044;-81
2022/08/27 20:25:19;;;;;;;9.77;2.47;;;;;;;18.33;57.57;100590.94;10181810;28;20051;-80
2022/08/27 20:30:25;;;;;;;5.75;2.20;;;;;;;18.33;57.63;100599.97;10188077;28;20052;-80
2022/08/27 20:35:28;;;;;;;7.75;2.00;;;;;;;18.30;57.44;100597.56;10169343;28;20078;-80
2022/08/27 20:40:33;;;;;;;11.30;3.67;;;;;;;18.16;57.60;100603.69;10163834;28;20072;-80
2022/08/27 20:45:37;;;;;;;11.80;3.00;;;;;;;18.00;57.41;100599.09;10157653;28;20084;-80
2022/08/27 20:50:40;;;;;;;6.68;2.70;;;;;;;17.98;57.89;100594.84;10172235;28;20051;-80
2022/08/27 20:55:45;;;;;;;10.35;3.10;;;;;;;17.93;57.95;100606.16;10187276;28;20067;-79
2022/08/27 21:00:52;;;;;;;8.65;3.35;;;;;;;17.81;57.98;100605.63;10179760;28;20068;-79
2022/08/27 21:05:54;;;;;;;12.10;4.03;;;;;;;17.64;58.54;100609.34;10166061;28;20845;-80
2022/08/27 21:10:59;;;;;;;9.18;2.95;;;;;;;17.61;58.80;100606.97;10168804;28;21391;-80
2022/08/27 21:16:02;;;;;;;6.93;3.30;;;;;;;17.53;59.04;100607.78;10174951;28;20048;-79
2022/08/27 21:21:07;;;;;;;11.13;3.30;;;;;;;17.41;59.19;100611.78;10175636;28;20146;-80
2022/08/27 21:26:13;;;;;;;12.90;3.13;;;;;;;17.34;59.23;100617.03;10192539;28;20059;-81
2022/08/27 21:31:16;;;;;;;13.27;4.65;;;;;;;17.30;59.50;100615.63;10182633;28;20076;-82
2022/08/27 21:36:21;;;;;;;11.35;3.28;;;;;;;17.19;59.86;100618.63;10164617;28;20115;-80
2022/08/27 21:41:27;;;;;;;12.18;3.03;;;;;;;17.10;60.10;100619.59;10194889;28;20072;-79
2022/08/27 21:46:30;;;;;;;9.88;3.70;;;;;;;17.01;60.26;100626.84;10187000;28;20053;-83
2022/08/27 21:51:33;;;;;;;10.13;3.60;;;;;;;16.91;60.55;100629.66;10192781;28;20488;-79
2022/08/27 21:56:40;;;;;;;12.43;3.40;;;;;;;16.84;60.90;100636.75;10188413;28;20051;-81
2022/08/27 22:01:43;;;;;;;16.50;3.13;;;;;;;16.75;61.06;100637.69;10146433;28;20048;-80
2022/08/27 22:06:46;;;;;;;7.82;3.72;;;;;;;16.59;61.45;100641.97;10154179;28;20706;-80
2022/08/27 22:11:50;;;;;;;8.63;3.78;;;;;;;16.42;61.95;100645.53;10156216;28;20055;-80
2022/08/27 22:16:53;;;;;;;9.25;3.40;;;;;;;16.40;61.87;100647.59;10171698;28;20092;-80
2022/08/27 22:21:56;;;;;;;12.70;3.35;;;;;;;16.44;61.87;100656.25;10173449;28;20095;-81
2022/08/27 22:27:00;;;;;;;12.48;3.95;;;;;;;16.48;62.32;100658.50;10153669;28;20401;-80
2022/08/27 22:32:06;;;;;;;15.95;3.75;;;;;;;16.35;61.89;100653.47;10160504;28;20067;-79
2022/08/27 22:37:09;;;;;;;14.18;3.42;;;;;;;16.03;62.91;100651.25;10153800;28;20457;-80
2022/08/27 22:42:13;;;;;;;16.70;3.85;;;;;;;15.83;64.10;100652.41;10169533;28;20108;-80
2022/08/27 22:47:19;;;;;;;13.95;3.85;;;;;;;15.75;64.16;100660.44;10156255;28;20508;-80
2022/08/27 22:52:22;;;;;;;16.73;4.53;;;;;;;15.52;64.96;100662.66;10161724;28;20055;-80
2022/08/27 22:57:33;;;;;;;11.25;3.85;;;;;;;15.54;65.01;100677.75;10165420;28;20691;-81
2022/08/27 23:02:36;;;;;;;14.25;3.35;;;;;;;15.46;65.73;100673.09;10154572;28;20518;-80
2022/08/27 23:07:39;;;;;;;12.73;3.72;;;;;;;15.52;65.26;100662.66;10154379;28;20067;-80
2022/08/27 23:12:45;;;;;;;9.90;3.15;;;;;;;15.44;65.60;100666.13;10155090;28;20079;-80
2022/08/27 23:17:48;;;;;;;12.23;4.03;;;;;;;15.47;66.03;100665.84;10155013;28;20104;-80
2022/08/27 23:22:53;;;;;;;15.00;4.30;;;;;;;15.40;65.74;100671.00;10153889;28;20102;-79
2022/08/27 23:27:57;;;;;;;16.42;3.63;;;;;;;15.22;66.72;100659.19;10174305;28;20090;-78
2022/08/27 23:33:02;;;;;;;9.05;3.83;;;;;;;15.15;66.76;100655.41;10142731;28;20055;-78